Levering, MI (49755)

10:56 PM EST on February 10, 2016 (GMT -0500)
North Levering MI | | Change Station
CLOSE
Current Station
Personal Weather Station
Location: Levering, MI
Elevation: 741 ft
Nearby Weather Stations

Elev 741 ft 45.67 °N, 84.79 °W | Updated 2 seconds ago

Overcast
Overcast
10.3 °F
Feels Like 10 °F
N
1.8
Wind Variable Wind from NNE
Gusts 6.5 mph

Today
High -- | Low -- °F
--% Chance of Precip.
Yesterday
High -- | Low -- °F
Precip. -- in
Pressure 30.05 in
Visibility 10.0 miles
Clouds Scattered Clouds 2700 ft
Overcast 5500 ft
Windchill 10 °F
Dew Point 4 °F
Humidity 75%
Rainfall 0.00 in
Snow Depth Not available.
7:49 AM 5:58 PM
Waxing Crescent, 9% visible
METAR KPLN 110354Z AUTO 33008KT 10SM SCT027 OVC055 M13/M17 A3000 RMK AO2 SLP176 T11281167
Pressure 30.05 in
Visibility 10.0 miles
Clouds Scattered Clouds 2700 ft
Overcast 5500 ft
Windchill 10 °F
Dew Point 4 °F
Humidity 75%
Rainfall 0.00 in
Snow Depth Not available.
7:49 AM 5:58 PM
Waxing Crescent, 9% visible
METAR KPLN 110354Z AUTO 33008KT 10SM SCT027 OVC055 M13/M17 A3000 RMK AO2 SLP176 T11281167

10-Day Weather Forecast

Almanac

Astronomy

Feb. 10, 2016 Rise Set
Actual Time
Civil Twilight
Nautical Twilight
Astronomical Twilight
Moon
Length of Visible Light
Length of Day
Tomorrow will be .
, % of the Moon is Illuminated

Today's Extremes

State Highs State Lows

Community

WunderPhotos

Upload Photos

1,892,000 photos uploaded!

WunderBlog® & News

Nearby

Air Quality

  Air Quality AQ Index Pollutant
Not available.

Snow Depth

Station Depth Elevation

Earthquake Activity

City Distance Mag. Time & Date
Minimum magnitude displayed is 2.5.

Coastal Water Temperatures

Place Temperature

Stations

Nearby Weather Stations

Station Location Temp. Windchill Dew Point Humidity Wind Precip. Elev Updated Type
                   

Watches & Warnings

There are currently no watches in effect.